createdAt,value
2019-04-28T00:00:51.256Z,2.60
2019-04-28T00:05:45.192Z,3.30
2019-04-28T00:10:39.284Z,3.60
2019-04-28T00:15:34.520Z,2.80
2019-04-28T00:20:31.102Z,3.43
2019-04-28T00:25:26.965Z,2.80
2019-04-28T00:30:21.734Z,2.93
2019-04-28T00:35:15.837Z,2.97
2019-04-28T00:40:11.135Z,3.43
2019-04-28T00:45:06.690Z,3.10
2019-04-28T00:50:02.150Z,3.30
2019-04-28T00:54:56.332Z,2.90
2019-04-28T00:59:57.815Z,2.80
2019-04-28T01:04:46.158Z,3.20
2019-04-28T01:09:41.632Z,3.30
2019-04-28T01:14:35.806Z,2.80
2019-04-28T01:19:31.669Z,2.50
2019-04-28T01:24:25.722Z,3.10
2019-04-28T01:29:19.789Z,2.97
2019-04-28T01:34:20.420Z,2.77
2019-04-28T01:39:14.602Z,2.50
2019-04-28T01:44:10.212Z,2.80
2019-04-28T01:49:04.337Z,2.80
2019-04-28T01:54:00.123Z,2.50
2019-04-28T01:58:54.172Z,2.80
2019-04-28T02:03:50.154Z,2.90
2019-04-28T02:08:44.188Z,3.00
2019-04-28T02:13:39.758Z,2.60
2019-04-28T02:18:33.872Z,3.00
2019-04-28T02:23:29.940Z,2.73
2019-04-28T02:28:24.020Z,2.20
2019-04-28T02:33:17.987Z,2.60
2019-04-28T02:38:11.949Z,2.57
2019-04-28T02:43:06.007Z,2.50
2019-04-28T02:48:01.890Z,3.00
2019-04-28T02:53:10.984Z,2.30
2019-04-28T02:58:05.239Z,2.53
2019-04-28T03:03:01.422Z,2.73
2019-04-28T03:07:55.193Z,2.53
2019-04-28T03:12:51.773Z,2.73
2019-04-28T03:17:45.424Z,2.53
2019-04-28T03:22:40.842Z,2.30
2019-04-28T03:27:37.197Z,2.70
2019-04-28T03:32:45.475Z,2.50
2019-04-28T03:37:31.934Z,3.10
2019-04-28T03:42:25.933Z,2.70
2019-04-28T03:47:21.122Z,2.67
2019-04-28T03:52:15.518Z,2.53
2019-04-28T03:57:11.367Z,2.47
2019-04-28T04:02:05.331Z,2.60
2019-04-28T04:07:01.490Z,2.27
2019-04-28T04:12:15.227Z,2.27
2019-04-28T04:17:14.100Z,2.83
2019-04-28T04:22:10.158Z,2.47
2019-04-28T04:27:04.014Z,2.90
2019-04-28T04:32:13.822Z,2.60
2019-04-28T04:36:54.001Z,2.73
2019-04-28T04:41:50.223Z,2.37
2019-04-28T04:46:43.824Z,2.93
2019-04-28T04:51:40.710Z,2.57
2019-04-28T04:56:34.168Z,2.93
2019-04-28T05:01:40.819Z,2.33
2019-04-28T05:06:36.868Z,2.63
2019-04-28T05:11:30.801Z,3.03
2019-04-28T05:16:24.758Z,3.00
2019-04-28T05:21:19.225Z,2.80
2019-04-28T05:26:14.581Z,2.50
2019-04-28T05:31:13.519Z,2.70
2019-04-28T05:36:05.101Z,2.60
2019-04-28T05:41:02.344Z,2.80
2019-04-28T05:45:54.983Z,2.83
2019-04-28T05:50:50.946Z,3.43
2019-04-28T05:55:46.868Z,3.00
2019-04-28T06:00:42.744Z,2.53
2019-04-28T06:05:36.803Z,2.70
2019-04-28T06:10:30.757Z,2.30
2019-04-28T06:15:24.692Z,2.30
2019-04-28T06:20:20.110Z,3.20
2019-04-28T06:25:14.209Z,2.70
2019-04-28T06:30:08.370Z,2.70
2019-04-28T06:35:04.425Z,2.30
2019-04-28T06:39:58.385Z,2.10
2019-04-28T06:44:52.434Z,2.80
2019-04-28T06:49:46.395Z,2.97
2019-04-28T06:54:40.379Z,2.83
2019-04-28T06:59:34.340Z,2.40
2019-04-28T07:04:28.307Z,2.40
2019-04-28T07:09:22.397Z,2.50
2019-04-28T07:14:16.343Z,2.50
2019-04-28T07:19:10.318Z,2.27
2019-04-28T07:24:04.411Z,2.63
2019-04-28T07:28:58.730Z,2.90
2019-04-28T07:33:52.902Z,2.80
2019-04-28T07:38:46.920Z,2.30
2019-04-28T07:43:40.892Z,2.30
2019-04-28T07:48:35.045Z,2.70
2019-04-28T07:53:37.744Z,3.03
2019-04-28T07:58:31.726Z,3.33
2019-04-28T08:03:25.781Z,2.67
2019-04-28T08:08:19.808Z,2.90
2019-04-28T08:13:13.806Z,2.60
2019-04-28T08:18:07.979Z,2.40
2019-04-28T08:23:01.991Z,2.40
2019-04-28T08:27:56.008Z,2.47
2019-04-28T08:33:01.168Z,2.50
2019-04-28T08:37:55.179Z,2.50
2019-04-28T08:42:49.301Z,2.90
2019-04-28T08:47:43.294Z,2.70
2019-04-28T08:52:37.463Z,2.40
2019-04-28T08:57:31.700Z,2.20
2019-04-28T09:02:25.768Z,2.33
2019-04-28T09:07:19.952Z,1.93
2019-04-28T09:12:13.909Z,2.57
2019-04-28T09:17:08.009Z,2.72
2019-04-28T09:22:02.091Z,2.50
2019-04-28T09:26:56.061Z,2.90
2019-04-28T09:31:50.162Z,4.07
2019-04-28T09:36:44.232Z,4.10
2019-04-28T09:41:40.273Z,4.40
2019-04-28T09:46:36.265Z,4.23
2019-04-28T09:51:30.331Z,3.80
2019-04-28T09:56:24.836Z,4.67
2019-04-28T10:01:19.007Z,2.83
2019-04-28T10:06:12.971Z,2.27
2019-04-28T10:11:07.070Z,2.20
2019-04-28T10:16:01.259Z,2.53
2019-04-28T10:20:55.386Z,2.43
2019-04-28T10:25:49.491Z,2.00
2019-04-28T10:30:43.665Z,1.55
2019-04-28T10:35:37.707Z,1.90
2019-04-28T10:40:36.904Z,2.40
2019-04-28T10:45:33.161Z,2.37
2019-04-28T10:50:27.179Z,2.10
2019-04-28T10:55:21.270Z,2.02
2019-04-28T11:00:17.267Z,2.00
2019-04-28T11:05:16.155Z,1.98
2019-04-28T11:10:18.101Z,2.02
2019-04-28T11:15:14.392Z,1.98
2019-04-28T11:20:08.782Z,1.72
2019-04-28T11:25:05.017Z,1.83
2019-04-28T11:29:58.996Z,1.53
2019-04-28T11:35:00.744Z,1.60
2019-04-28T11:39:54.740Z,1.80
2019-04-28T11:44:48.832Z,1.57
2019-04-28T11:49:42.833Z,1.65
2019-04-28T11:54:36.936Z,1.35
2019-04-28T11:59:30.900Z,1.15
2019-04-28T12:04:25.292Z,1.00
2019-04-28T12:09:26.273Z,1.07
2019-04-28T12:14:22.140Z,1.00
2019-04-28T12:19:18.040Z,0.90
2019-04-28T12:24:12.157Z,0.90
2019-04-28T12:29:06.372Z,1.20
2019-04-28T12:34:00.448Z,1.32
2019-04-28T12:38:54.474Z,1.40
2019-04-28T12:43:48.456Z,1.40
2019-04-28T12:48:45.324Z,1.30
2019-04-28T12:53:39.409Z,1.55
2019-04-28T12:58:33.497Z,1.80
2019-04-28T13:03:47.589Z,1.52
2019-04-28T13:08:41.555Z,1.20
2019-04-28T13:13:35.549Z,1.20
2019-04-28T13:18:29.544Z,1.10
2019-04-28T13:23:23.567Z,1.37
2019-04-28T13:28:17.657Z,1.40
2019-04-28T13:33:11.767Z,1.43
2019-04-28T13:38:05.858Z,1.50
2019-04-28T13:42:59.989Z,1.60
2019-04-28T13:47:54.076Z,1.90
2019-04-28T13:52:48.063Z,1.90
2019-04-28T13:57:42.412Z,1.67
2019-04-28T14:02:44.932Z,1.57
2019-04-28T14:07:39.268Z,1.30
2019-04-28T14:12:33.354Z,1.60
2019-04-28T14:17:27.327Z,1.32
2019-04-28T14:22:21.375Z,1.70
2019-04-28T14:27:15.508Z,1.40
2019-04-28T14:32:09.442Z,1.20
2019-04-28T14:37:03.573Z,1.42
2019-04-28T14:41:57.528Z,1.07
2019-04-28T14:46:51.568Z,1.00
2019-04-28T14:51:45.553Z,1.75
2019-04-28T14:56:39.648Z,1.40
2019-04-28T15:01:50.720Z,1.45
2019-04-28T15:06:55.516Z,1.00
2019-04-28T15:11:44.583Z,1.00
2019-04-28T15:16:38.544Z,0.90
2019-04-28T15:21:32.727Z,1.10
2019-04-28T15:26:26.653Z,0.90
2019-04-28T15:31:20.650Z,1.10
2019-04-28T15:36:14.763Z,0.85
2019-04-28T15:41:20.945Z,1.17
2019-04-28T15:46:04.809Z,1.10
2019-04-28T15:50:58.831Z,1.07
2019-04-28T15:55:54.718Z,1.05
2019-04-28T16:00:48.872Z,1.15
2019-04-28T16:05:42.866Z,1.35
2019-04-28T16:10:36.868Z,1.00
2019-04-28T16:15:30.868Z,0.90
2019-04-28T16:20:24.953Z,0.90
2019-04-28T16:25:18.943Z,0.90
2019-04-28T16:30:13.256Z,0.90
2019-04-28T16:35:07.431Z,0.90
2019-04-28T16:40:01.839Z,0.98
2019-04-28T16:44:56.493Z,1.00
2019-04-28T16:49:51.010Z,1.10
2019-04-28T16:54:47.189Z,0.95
2019-04-28T16:59:46.423Z,1.00
2019-04-28T17:04:40.623Z,1.12
2019-04-28T17:09:34.763Z,1.40
2019-04-28T17:14:28.722Z,1.90
2019-04-28T17:19:22.814Z,1.50
2019-04-28T17:24:16.839Z,1.10
2019-04-28T17:29:10.822Z,1.20
2019-04-28T17:34:04.961Z,1.10
2019-04-28T17:38:58.924Z,1.03
2019-04-28T17:43:52.952Z,1.13
2019-04-28T17:48:57.767Z,1.00
2019-04-28T17:53:51.854Z,1.13
2019-04-28T17:58:45.965Z,1.00
2019-04-28T18:03:58.635Z,0.80
2019-04-28T18:08:53.027Z,0.97
2019-04-28T18:13:47.165Z,1.10
2019-04-28T18:18:43.264Z,0.60
2019-04-28T18:23:37.277Z,0.90
2019-04-28T18:28:31.237Z,1.00
2019-04-28T18:33:30.142Z,1.20
2019-04-28T18:38:35.202Z,1.50
2019-04-28T18:43:44.999Z,1.33
2019-04-28T18:48:39.184Z,1.60
2019-04-28T18:53:33.232Z,2.10
2019-04-28T18:58:27.373Z,2.07
2019-04-28T19:03:21.656Z,3.33
2019-04-28T19:08:20.563Z,8.70
2019-04-28T19:13:31.749Z,8.43
2019-04-28T19:18:36.975Z,7.53
2019-04-28T19:23:31.045Z,11.03
2019-04-28T19:28:25.087Z,9.07
2019-04-28T19:33:19.076Z,4.50
2019-04-28T19:38:13.088Z,4.40
2019-04-28T19:43:07.092Z,6.03
2019-04-28T19:48:01.165Z,3.10
2019-04-28T19:52:56.583Z,3.47
2019-04-28T19:57:55.563Z,3.80
2019-04-28T20:02:49.640Z,3.90
2019-04-28T20:07:43.653Z,3.63
2019-04-28T20:12:37.725Z,3.70
2019-04-28T20:17:31.830Z,3.60
2019-04-28T20:22:26.145Z,3.90
2019-04-28T20:27:20.154Z,3.80
2019-04-28T20:32:14.127Z,3.97
2019-04-28T20:37:12.900Z,4.10
2019-04-28T20:42:27.723Z,4.83
2019-04-28T20:47:21.697Z,4.70
2019-04-28T20:52:15.696Z,3.83
2019-04-28T20:57:09.701Z,3.70
2019-04-28T21:02:03.903Z,3.67
2019-04-28T21:06:57.869Z,3.10
2019-04-28T21:11:51.906Z,4.10
2019-04-28T21:16:45.829Z,3.90
2019-04-28T21:21:39.825Z,3.60
2019-04-28T21:26:33.907Z,3.47
2019-04-28T21:31:27.991Z,3.60
2019-04-28T21:36:22.084Z,3.50
2019-04-28T21:41:16.278Z,3.23
2019-04-28T21:46:18.293Z,3.47
2019-04-28T21:51:12.598Z,3.60
2019-04-28T21:56:06.707Z,3.80
2019-04-28T22:01:00.972Z,3.70
2019-04-28T22:05:55.043Z,4.10
2019-04-28T22:10:49.385Z,4.73
2019-04-28T22:15:43.355Z,4.20
2019-04-28T22:20:37.334Z,4.77
2019-04-28T22:25:31.415Z,4.53
2019-04-28T22:30:25.587Z,4.53
2019-04-28T22:35:19.747Z,4.40
2019-04-28T22:40:13.924Z,4.20
2019-04-28T22:45:08.741Z,3.40
2019-04-28T22:50:07.195Z,3.37
2019-04-28T22:55:02.771Z,3.73
2019-04-28T22:59:58.658Z,3.47
2019-04-28T23:04:54.624Z,3.37
2019-04-28T23:09:48.725Z,3.70
2019-04-28T23:14:42.684Z,4.47
2019-04-28T23:19:38.580Z,4.13
2019-04-28T23:24:32.536Z,3.90
2019-04-28T23:29:26.704Z,3.53
2019-04-28T23:34:20.769Z,3.40
2019-04-28T23:39:14.771Z,3.80
2019-04-28T23:44:08.743Z,3.67
2019-04-28T23:49:02.811Z,3.73
2019-04-28T23:54:04.874Z,4.13
2019-04-28T23:58:58.850Z,4.20
